sensor_id;sensor_type;location;lat;lon;timestamp;temperature;humidity
20722;DHT22;10522;52.198;9.890;2022-12-18T00:00:53;-6.40;99.90
20722;DHT22;10522;52.198;9.890;2022-12-18T00:03:19;-6.40;99.90
20722;DHT22;10522;52.198;9.890;2022-12-18T00:05:49;-6.40;99.90
20722;DHT22;10522;52.198;9.890;2022-12-18T00:08:15;-6.40;99.90
20722;DHT22;10522;52.198;9.890;2022-12-18T00:10:42;-6.30;99.90
20722;DHT22;10522;52.198;9.890;2022-12-18T00:13:07;-6.00;99.90
20722;DHT22;10522;52.198;9.890;2022-12-18T00:15:34;-5.80;99.90
20722;DHT22;10522;52.198;9.890;2022-12-18T00:18:00;-5.60;99.90
20722;DHT22;10522;52.198;9.890;2022-12-18T00:20:25;-5.50;99.90
20722;DHT22;10522;52.198;9.890;2022-12-18T00:22:54;-5.30;99.90
20722;DHT22;10522;52.198;9.890;2022-12-18T00:25:20;-5.30;99.90
20722;DHT22;10522;52.198;9.890;2022-12-18T00:27:47;-5.70;99.90
20722;DHT22;10522;52.198;9.890;2022-12-18T00:30:13;-6.20;99.90
20722;DHT22;10522;52.198;9.890;2022-12-18T00:32:39;-6.40;99.90
20722;DHT22;10522;52.198;9.890;2022-12-18T00:35:05;-6.50;99.90
20722;DHT22;10522;52.198;9.890;2022-12-18T00:37:33;-6.60;99.90
20722;DHT22;10522;52.198;9.890;2022-12-18T00:39:59;-6.50;99.90
20722;DHT22;10522;52.198;9.890;2022-12-18T00:42:24;-6.50;99.90
20722;DHT22;10522;52.198;9.890;2022-12-18T00:45:08;-6.60;99.90
20722;DHT22;10522;52.198;9.890;2022-12-18T00:47:34;-6.70;99.90
20722;DHT22;10522;52.198;9.890;2022-12-18T00:49:59;-6.80;99.90
20722;DHT22;10522;52.198;9.890;2022-12-18T00:52:25;-6.80;99.90
20722;DHT22;10522;52.198;9.890;2022-12-18T00:54:51;-6.70;99.90
20722;DHT22;10522;52.198;9.890;2022-12-18T00:57:16;-6.80;99.90
20722;DHT22;10522;52.198;9.890;2022-12-18T00:59:42;-7.00;99.90
20722;DHT22;10522;52.198;9.890;2022-12-18T01:02:07;-7.10;99.90
20722;DHT22;10522;52.198;9.890;2022-12-18T01:04:33;-7.20;99.90
20722;DHT22;10522;52.198;9.890;2022-12-18T01:06:59;-7.20;99.90
20722;DHT22;10522;52.198;9.890;2022-12-18T01:09:25;-7.20;99.90
20722;DHT22;10522;52.198;9.890;2022-12-18T01:11:51;-7.20;99.90
20722;DHT22;10522;52.198;9.890;2022-12-18T01:14:17;-7.20;99.90
20722;DHT22;10522;52.198;9.890;2022-12-18T01:16:42;-7.10;99.90
20722;DHT22;10522;52.198;9.890;2022-12-18T01:19:08;-7.10;99.90
20722;DHT22;10522;52.198;9.890;2022-12-18T01:21:33;-7.10;99.90
20722;DHT22;10522;52.198;9.890;2022-12-18T01:23:59;-7.20;99.90
20722;DHT22;10522;52.198;9.890;2022-12-18T01:26:25;-7.10;99.90
20722;DHT22;10522;52.198;9.890;2022-12-18T01:28:54;-7.10;99.90
20722;DHT22;10522;52.198;9.890;2022-12-18T01:31:22;-7.30;99.90
20722;DHT22;10522;52.198;9.890;2022-12-18T01:33:49;-7.60;99.90
20722;DHT22;10522;52.198;9.890;2022-12-18T01:36:27;-7.70;99.90
20722;DHT22;10522;52.198;9.890;2022-12-18T01:38:53;-7.60;99.90
20722;DHT22;10522;52.198;9.890;2022-12-18T01:41:25;-7.30;99.90
20722;DHT22;10522;52.198;9.890;2022-12-18T01:43:54;-6.90;99.90
20722;DHT22;10522;52.198;9.890;2022-12-18T01:46:22;-6.80;99.90
20722;DHT22;10522;52.198;9.890;2022-12-18T01:48:54;-6.60;99.90
20722;DHT22;10522;52.198;9.890;2022-12-18T01:51:21;-6.50;99.90
20722;DHT22;10522;52.198;9.890;2022-12-18T01:53:48;-6.50;99.90
20722;DHT22;10522;52.198;9.890;2022-12-18T01:56:19;-6.40;99.90
20722;DHT22;10522;52.198;9.890;2022-12-18T01:58:59;-6.40;99.90
20722;DHT22;10522;52.198;9.890;2022-12-18T02:01:25;-6.20;99.90
20722;DHT22;10522;52.198;9.890;2022-12-18T02:03:52;-6.10;99.90
20722;DHT22;10522;52.198;9.890;2022-12-18T02:18:58;-6.10;99.90
20722;DHT22;10522;52.198;9.890;2022-12-18T02:21:44;-6.30;99.90
20722;DHT22;10522;52.198;9.890;2022-12-18T02:27:04;-6.60;99.90
20722;DHT22;10522;52.198;9.890;2022-12-18T02:29:39;-6.70;99.90
20722;DHT22;10522;52.198;9.890;2022-12-18T02:32:14;-6.80;99.90
20722;DHT22;10522;52.198;9.890;2022-12-18T02:34:40;-7.00;99.90
20722;DHT22;10522;52.198;9.890;2022-12-18T02:37:14;-7.10;99.90
20722;DHT22;10522;52.198;9.890;2022-12-18T02:39:43;-7.10;99.90
20722;DHT22;10522;52.198;9.890;2022-12-18T02:42:10;-7.10;99.90
20722;DHT22;10522;52.198;9.890;2022-12-18T02:44:48;-7.10;99.90
20722;DHT22;10522;52.198;9.890;2022-12-18T02:47:17;-6.90;99.90
20722;DHT22;10522;52.198;9.890;2022-12-18T02:55:08;-6.70;99.90
20722;DHT22;10522;52.198;9.890;2022-12-18T03:00:44;-6.90;99.90
20722;DHT22;10522;52.198;9.890;2022-12-18T03:03:27;-6.90;99.90
20722;DHT22;10522;52.198;9.890;2022-12-18T03:06:00;-6.90;99.90
20722;DHT22;10522;52.198;9.890;2022-12-18T03:08:35;-6.80;99.90
20722;DHT22;10522;52.198;9.890;2022-12-18T03:11:07;-6.90;99.90
20722;DHT22;10522;52.198;9.890;2022-12-18T03:16:11;-7.30;99.90
20722;DHT22;10522;52.198;9.890;2022-12-18T03:21:10;-7.40;99.90
20722;DHT22;10522;52.198;9.890;2022-12-18T03:23:45;-7.40;99.90
20722;DHT22;10522;52.198;9.890;2022-12-18T03:26:15;-7.40;99.90
20722;DHT22;10522;52.198;9.890;2022-12-18T03:28:51;-7.50;99.90
20722;DHT22;10522;52.198;9.890;2022-12-18T03:31:19;-7.60;99.90
20722;DHT22;10522;52.198;9.890;2022-12-18T03:33:52;-7.20;99.90
20722;DHT22;10522;52.198;9.890;2022-12-18T03:36:19;-7.10;99.90
20722;DHT22;10522;52.198;9.890;2022-12-18T03:38:44;-7.00;99.90
20722;DHT22;10522;52.198;9.890;2022-12-18T03:46:28;-6.90;99.90
20722;DHT22;10522;52.198;9.890;2022-12-18T03:49:00;-6.90;99.90
20722;DHT22;10522;52.198;9.890;2022-12-18T03:51:28;-6.80;99.90
20722;DHT22;10522;52.198;9.890;2022-12-18T03:54:03;-6.60;99.90
20722;DHT22;10522;52.198;9.890;2022-12-18T03:56:35;-6.50;99.90
20722;DHT22;10522;52.198;9.890;2022-12-18T03:59:03;-6.30;99.90
20722;DHT22;10522;52.198;9.890;2022-12-18T04:01:39;-6.10;99.90
20722;DHT22;10522;52.198;9.890;2022-12-18T04:04:06;-6.00;99.90
20722;DHT22;10522;52.198;9.890;2022-12-18T04:06:33;-5.90;99.90
20722;DHT22;10522;52.198;9.890;2022-12-18T04:09:00;-5.80;99.90
20722;DHT22;10522;52.198;9.890;2022-12-18T04:11:26;-5.80;99.90
20722;DHT22;10522;52.198;9.890;2022-12-18T04:13:56;-5.60;99.90
20722;DHT22;10522;52.198;9.890;2022-12-18T04:16:23;-5.20;99.90
20722;DHT22;10522;52.198;9.890;2022-12-18T04:18:48;-5.10;99.90
20722;DHT22;10522;52.198;9.890;2022-12-18T04:21:14;-5.00;99.90
20722;DHT22;10522;52.198;9.890;2022-12-18T04:23:40;-5.20;99.90
20722;DHT22;10522;52.198;9.890;2022-12-18T04:26:05;-5.30;99.90
20722;DHT22;10522;52.198;9.890;2022-12-18T04:28:31;-5.40;99.90
20722;DHT22;10522;52.198;9.890;2022-12-18T04:30:56;-5.60;99.90
20722;DHT22;10522;52.198;9.890;2022-12-18T04:33:22;-5.80;99.90
20722;DHT22;10522;52.198;9.890;2022-12-18T04:35:48;-6.00;99.90
20722;DHT22;10522;52.198;9.890;2022-12-18T04:38:13;-6.00;99.90
20722;DHT22;10522;52.198;9.890;2022-12-18T04:40:39;-6.20;99.90
20722;DHT22;10522;52.198;9.890;2022-12-18T04:43:05;-6.30;99.90
20722;DHT22;10522;52.198;9.890;2022-12-18T04:45:31;-6.40;99.90
20722;DHT22;10522;52.198;9.890;2022-12-18T04:47:58;-6.40;99.90
20722;DHT22;10522;52.198;9.890;2022-12-18T04:50:24;-6.30;99.90
20722;DHT22;10522;52.198;9.890;2022-12-18T04:52:49;-6.30;99.90
20722;DHT22;10522;52.198;9.890;2022-12-18T04:55:15;-6.40;99.90
20722;DHT22;10522;52.198;9.890;2022-12-18T04:57:41;-6.40;99.90
20722;DHT22;10522;52.198;9.890;2022-12-18T05:00:07;-6.50;99.90
20722;DHT22;10522;52.198;9.890;2022-12-18T05:02:33;-6.60;99.90
20722;DHT22;10522;52.198;9.890;2022-12-18T05:04:58;-6.80;99.90
20722;DHT22;10522;52.198;9.890;2022-12-18T05:07:24;-7.00;99.90
20722;DHT22;10522;52.198;9.890;2022-12-18T05:09:50;-7.00;99.90
20722;DHT22;10522;52.198;9.890;2022-12-18T05:12:15;-7.10;99.90
20722;DHT22;10522;52.198;9.890;2022-12-18T05:14:41;-7.00;99.90
20722;DHT22;10522;52.198;9.890;2022-12-18T05:17:07;-6.90;99.90
20722;DHT22;10522;52.198;9.890;2022-12-18T05:19:32;-6.10;99.90
20722;DHT22;10522;52.198;9.890;2022-12-18T05:21:58;-5.70;99.90
20722;DHT22;10522;52.198;9.890;2022-12-18T05:24:23;-5.30;99.90
20722;DHT22;10522;52.198;9.890;2022-12-18T05:26:49;-5.10;99.90
20722;DHT22;10522;52.198;9.890;2022-12-18T05:29:15;-4.90;99.90
20722;DHT22;10522;52.198;9.890;2022-12-18T05:31:41;-4.80;99.90
20722;DHT22;10522;52.198;9.890;2022-12-18T05:34:06;-4.70;99.90
20722;DHT22;10522;52.198;9.890;2022-12-18T05:36:32;-4.50;99.90
20722;DHT22;10522;52.198;9.890;2022-12-18T05:38:58;-4.50;99.90
20722;DHT22;10522;52.198;9.890;2022-12-18T05:41:23;-4.60;99.90
20722;DHT22;10522;52.198;9.890;2022-12-18T05:43:49;-4.50;99.90
20722;DHT22;10522;52.198;9.890;2022-12-18T05:46:17;-4.40;99.90
20722;DHT22;10522;52.198;9.890;2022-12-18T05:48:44;-4.40;99.90
20722;DHT22;10522;52.198;9.890;2022-12-18T05:51:12;-4.40;99.90
20722;DHT22;10522;52.198;9.890;2022-12-18T05:53:38;-4.40;99.90
20722;DHT22;10522;52.198;9.890;2022-12-18T05:56:06;-4.40;99.90
20722;DHT22;10522;52.198;9.890;2022-12-18T05:58:33;-4.40;99.90
20722;DHT22;10522;52.198;9.890;2022-12-18T06:01:07;-4.40;99.90
20722;DHT22;10522;52.198;9.890;2022-12-18T06:03:33;-4.40;99.90
20722;DHT22;10522;52.198;9.890;2022-12-18T06:05:59;-4.50;99.90
20722;DHT22;10522;52.198;9.890;2022-12-18T06:08:24;-4.60;99.90
20722;DHT22;10522;52.198;9.890;2022-12-18T06:10:51;-4.50;99.90
20722;DHT22;10522;52.198;9.890;2022-12-18T06:13:18;-4.60;99.90
20722;DHT22;10522;52.198;9.890;2022-12-18T06:15:44;-4.70;99.90
20722;DHT22;10522;52.198;9.890;2022-12-18T06:18:10;-4.70;99.90
20722;DHT22;10522;52.198;9.890;2022-12-18T06:20:35;-4.80;99.90
20722;DHT22;10522;52.198;9.890;2022-12-18T06:23:02;-4.90;99.90
20722;DHT22;10522;52.198;9.890;2022-12-18T06:25:28;-5.10;99.90
20722;DHT22;10522;52.198;9.890;2022-12-18T06:27:53;-5.10;99.90
20722;DHT22;10522;52.198;9.890;2022-12-18T06:30:19;-5.20;99.90
20722;DHT22;10522;52.198;9.890;2022-12-18T06:32:45;-5.30;99.90
20722;DHT22;10522;52.198;9.890;2022-12-18T06:35:11;-5.40;99.90
20722;DHT22;10522;52.198;9.890;2022-12-18T06:37:36;-5.50;99.90
20722;DHT22;10522;52.198;9.890;2022-12-18T06:40:02;-5.70;99.90
20722;DHT22;10522;52.198;9.890;2022-12-18T06:42:28;-5.80;99.90
20722;DHT22;10522;52.198;9.890;2022-12-18T06:44:54;-6.00;99.90
20722;DHT22;10522;52.198;9.890;2022-12-18T06:47:19;-6.30;99.90
20722;DHT22;10522;52.198;9.890;2022-12-18T06:49:45;-6.60;99.90
20722;DHT22;10522;52.198;9.890;2022-12-18T06:52:11;-6.70;99.90
20722;DHT22;10522;52.198;9.890;2022-12-18T06:54:36;-6.80;99.90
20722;DHT22;10522;52.198;9.890;2022-12-18T06:57:02;-6.90;99.90
20722;DHT22;10522;52.198;9.890;2022-12-18T06:59:27;-7.00;99.90
20722;DHT22;10522;52.198;9.890;2022-12-18T07:01:53;-7.00;99.90
20722;DHT22;10522;52.198;9.890;2022-12-18T07:04:19;-7.00;99.90
20722;DHT22;10522;52.198;9.890;2022-12-18T07:06:44;-6.90;99.90
20722;DHT22;10522;52.198;9.890;2022-12-18T07:09:10;-6.80;99.90
20722;DHT22;10522;52.198;9.890;2022-12-18T07:11:35;-6.70;99.90
20722;DHT22;10522;52.198;9.890;2022-12-18T07:14:01;-6.40;99.90
20722;DHT22;10522;52.198;9.890;2022-12-18T07:16:27;-6.10;99.90
20722;DHT22;10522;52.198;9.890;2022-12-18T07:18:56;-6.20;99.90
20722;DHT22;10522;52.198;9.890;2022-12-18T07:21:23;-6.20;99.90
20722;DHT22;10522;52.198;9.890;2022-12-18T07:23:49;-5.70;99.90
20722;DHT22;10522;52.198;9.890;2022-12-18T07:26:17;-5.50;99.90
20722;DHT22;10522;52.198;9.890;2022-12-18T07:28:43;-5.30;99.90
20722;DHT22;10522;52.198;9.890;2022-12-18T07:31:16;-5.10;99.90
20722;DHT22;10522;52.198;9.890;2022-12-18T07:33:43;-4.90;99.90
20722;DHT22;10522;52.198;9.890;2022-12-18T07:36:09;-4.60;99.90
20722;DHT22;10522;52.198;9.890;2022-12-18T07:38:36;-4.60;99.90
20722;DHT22;10522;52.198;9.890;2022-12-18T07:41:03;-4.70;99.90
20722;DHT22;10522;52.198;9.890;2022-12-18T07:43:29;-4.50;99.90
20722;DHT22;10522;52.198;9.890;2022-12-18T07:45:54;-4.30;99.90
20722;DHT22;10522;52.198;9.890;2022-12-18T07:48:20;-4.30;99.90
20722;DHT22;10522;52.198;9.890;2022-12-18T07:50:46;-4.20;99.90
20722;DHT22;10522;52.198;9.890;2022-12-18T07:53:11;-4.10;99.90
20722;DHT22;10522;52.198;9.890;2022-12-18T07:55:37;-4.00;99.90
20722;DHT22;10522;52.198;9.890;2022-12-18T07:58:03;-3.80;99.90
20722;DHT22;10522;52.198;9.890;2022-12-18T08:00:30;-3.70;99.90
20722;DHT22;10522;52.198;9.890;2022-12-18T08:02:56;-3.70;99.90
20722;DHT22;10522;52.198;9.890;2022-12-18T08:05:22;-3.60;99.90
20722;DHT22;10522;52.198;9.890;2022-12-18T08:07:48;-3.50;99.90
20722;DHT22;10522;52.198;9.890;2022-12-18T08:10:14;-3.60;99.90
20722;DHT22;10522;52.198;9.890;2022-12-18T08:12:40;-3.60;99.90
20722;DHT22;10522;52.198;9.890;2022-12-18T08:15:06;-3.60;99.90
20722;DHT22;10522;52.198;9.890;2022-12-18T08:17:32;-3.60;99.90
20722;DHT22;10522;52.198;9.890;2022-12-18T08:19:58;-3.50;99.90
20722;DHT22;10522;52.198;9.890;2022-12-18T08:22:23;-3.40;99.90
20722;DHT22;10522;52.198;9.890;2022-12-18T08:24:49;-3.40;99.90
20722;DHT22;10522;52.198;9.890;2022-12-18T08:27:14;-3.40;99.90
20722;DHT22;10522;52.198;9.890;2022-12-18T08:29:40;-3.30;99.90
20722;DHT22;10522;52.198;9.890;2022-12-18T08:32:06;-3.30;99.90
20722;DHT22;10522;52.198;9.890;2022-12-18T08:34:32;-3.30;99.90
20722;DHT22;10522;52.198;9.890;2022-12-18T08:36:57;-3.20;99.90
20722;DHT22;10522;52.198;9.890;2022-12-18T08:39:23;-3.20;99.90
20722;DHT22;10522;52.198;9.890;2022-12-18T08:41:49;-3.20;99.90
20722;DHT22;10522;52.198;9.890;2022-12-18T08:44:34;-3.10;99.90
20722;DHT22;10522;52.198;9.890;2022-12-18T08:47:03;-3.10;99.90
20722;DHT22;10522;52.198;9.890;2022-12-18T08:49:29;-2.90;99.90
20722;DHT22;10522;52.198;9.890;2022-12-18T08:51:55;-2.90;99.90
20722;DHT22;10522;52.198;9.890;2022-12-18T08:54:22;-2.90;99.90
20722;DHT22;10522;52.198;9.890;2022-12-18T08:56:48;-2.80;99.90
20722;DHT22;10522;52.198;9.890;2022-12-18T08:59:18;-2.80;99.90
20722;DHT22;10522;52.198;9.890;2022-12-18T09:01:44;-2.70;99.90
20722;DHT22;10522;52.198;9.890;2022-12-18T09:04:10;-2.70;99.90
20722;DHT22;10522;52.198;9.890;2022-12-18T09:06:35;-2.60;99.90
20722;DHT22;10522;52.198;9.890;2022-12-18T09:09:01;-2.60;99.90
20722;DHT22;10522;52.198;9.890;2022-12-18T09:11:28;-2.60;99.90
20722;DHT22;10522;52.198;9.890;2022-12-18T09:13:54;-2.50;99.90
20722;DHT22;10522;52.198;9.890;2022-12-18T09:16:21;-2.50;99.90
20722;DHT22;10522;52.198;9.890;2022-12-18T09:18:47;-2.40;99.90
20722;DHT22;10522;52.198;9.890;2022-12-18T09:21:19;-2.40;99.90
20722;DHT22;10522;52.198;9.890;2022-12-18T09:23:49;-2.30;99.90
20722;DHT22;10522;52.198;9.890;2022-12-18T09:26:15;-2.20;99.90
20722;DHT22;10522;52.198;9.890;2022-12-18T09:28:42;-2.20;99.90
20722;DHT22;10522;52.198;9.890;2022-12-18T09:31:08;-2.00;99.90
20722;DHT22;10522;52.198;9.890;2022-12-18T09:33:35;-2.00;99.90
20722;DHT22;10522;52.198;9.890;2022-12-18T09:36:03;-1.80;99.90
20722;DHT22;10522;52.198;9.890;2022-12-18T09:38:29;-1.70;99.90
20722;DHT22;10522;52.198;9.890;2022-12-18T09:44:05;-1.60;99.90
20722;DHT22;10522;52.198;9.890;2022-12-18T09:46:39;-1.70;99.90
20722;DHT22;10522;52.198;9.890;2022-12-18T09:49:13;-1.80;99.90
20722;DHT22;10522;52.198;9.890;2022-12-18T09:51:45;-1.90;99.90
20722;DHT22;10522;52.198;9.890;2022-12-18T09:54:21;-1.60;99.90
20722;DHT22;10522;52.198;9.890;2022-12-18T09:56:48;-1.60;99.90
20722;DHT22;10522;52.198;9.890;2022-12-18T09:59:34;-1.50;99.90
20722;DHT22;10522;52.198;9.890;2022-12-18T10:02:13;-1.20;99.90
20722;DHT22;10522;52.198;9.890;2022-12-18T10:04:39;-1.20;99.90
20722;DHT22;10522;52.198;9.890;2022-12-18T10:07:28;-1.10;99.90
20722;DHT22;10522;52.198;9.890;2022-12-18T10:10:03;-0.90;99.90
20722;DHT22;10522;52.198;9.890;2022-12-18T10:18:17;-0.60;99.90
20722;DHT22;10522;52.198;9.890;2022-12-18T10:20:48;-0.50;99.90
20722;DHT22;10522;52.198;9.890;2022-12-18T10:26:07;-0.40;99.90
20722;DHT22;10522;52.198;9.890;2022-12-18T10:28:36;-0.40;99.90
20722;DHT22;10522;52.198;9.890;2022-12-18T10:31:02;-0.30;99.90
20722;DHT22;10522;52.198;9.890;2022-12-18T10:33:30;-0.40;99.90
20722;DHT22;10522;52.198;9.890;2022-12-18T10:35:57;-0.40;99.90
20722;DHT22;10522;52.198;9.890;2022-12-18T10:38:28;-0.40;99.90
20722;DHT22;10522;52.198;9.890;2022-12-18T10:41:01;-0.40;99.90
20722;DHT22;10522;52.198;9.890;2022-12-18T10:43:28;-0.30;99.90
20722;DHT22;10522;52.198;9.890;2022-12-18T10:46:17;-0.20;99.90
20722;DHT22;10522;52.198;9.890;2022-12-18T10:48:53;-0.10;99.90
20722;DHT22;10522;52.198;9.890;2022-12-18T10:51:36;0.10;99.90
20722;DHT22;10522;52.198;9.890;2022-12-18T10:54:19;0.00;99.90
20722;DHT22;10522;52.198;9.890;2022-12-18T10:56:47;0.20;99.90
20722;DHT22;10522;52.198;9.890;2022-12-18T10:59:17;0.20;99.90
20722;DHT22;10522;52.198;9.890;2022-12-18T11:01:53;0.30;99.90
20722;DHT22;10522;52.198;9.890;2022-12-18T11:04:24;0.30;99.90
20722;DHT22;10522;52.198;9.890;2022-12-18T11:06:54;0.40;99.90
20722;DHT22;10522;52.198;9.890;2022-12-18T11:09:22;0.40;99.90
20722;DHT22;10522;52.198;9.890;2022-12-18T11:12:00;0.50;99.90
20722;DHT22;10522;52.198;9.890;2022-12-18T11:14:29;0.50;99.90
20722;DHT22;10522;52.198;9.890;2022-12-18T11:16:58;0.60;99.90
20722;DHT22;10522;52.198;9.890;2022-12-18T11:19:37;0.70;99.90
20722;DHT22;10522;52.198;9.890;2022-12-18T11:22:26;0.70;99.90
20722;DHT22;10522;52.198;9.890;2022-12-18T11:27:37;0.70;99.90
20722;DHT22;10522;52.198;9.890;2022-12-18T11:30:22;0.70;99.90
20722;DHT22;10522;52.198;9.890;2022-12-18T11:35:53;0.70;99.90
20722;DHT22;10522;52.198;9.890;2022-12-18T11:38:24;0.60;99.90
20722;DHT22;10522;52.198;9.890;2022-12-18T11:40:59;0.60;99.90
20722;DHT22;10522;52.198;9.890;2022-12-18T11:43:29;0.50;99.90
20722;DHT22;10522;52.198;9.890;2022-12-18T11:46:45;0.50;99.90
20722;DHT22;10522;52.198;9.890;2022-12-18T11:49:06;0.70;99.90
20722;DHT22;10522;52.198;9.890;2022-12-18T11:51:43;0.70;99.90
20722;DHT22;10522;52.198;9.890;2022-12-18T11:54:14;0.70;99.90
20722;DHT22;10522;52.198;9.890;2022-12-18T11:56:51;0.70;99.90
20722;DHT22;10522;52.198;9.890;2022-12-18T12:01:50;0.70;99.90
20722;DHT22;10522;52.198;9.890;2022-12-18T12:05:01;0.60;99.90
20722;DHT22;10522;52.198;9.890;2022-12-18T12:07:53;0.50;99.90
20722;DHT22;10522;52.198;9.890;2022-12-18T12:21:43;0.40;99.90
20722;DHT22;10522;52.198;9.890;2022-12-18T12:32:17;0.30;99.90
20722;DHT22;10522;52.198;9.890;2022-12-18T12:37:36;0.20;99.90
20722;DHT22;10522;52.198;9.890;2022-12-18T12:40:04;0.20;99.90
20722;DHT22;10522;52.198;9.890;2022-12-18T12:42:42;0.10;99.90
20722;DHT22;10522;52.198;9.890;2022-12-18T12:48:40;0.10;99.90
20722;DHT22;10522;52.198;9.890;2022-12-18T12:51:18;0.00;99.90
20722;DHT22;10522;52.198;9.890;2022-12-18T12:53:45;-0.10;99.90
20722;DHT22;10522;52.198;9.890;2022-12-18T12:56:13;-0.10;99.90
20722;DHT22;10522;52.198;9.890;2022-12-18T13:02:21;-0.20;99.90
20722;DHT22;10522;52.198;9.890;2022-12-18T13:05:03;-0.30;99.90
20722;DHT22;10522;52.198;9.890;2022-12-18T13:07:45;-0.40;99.90
20722;DHT22;10522;52.198;9.890;2022-12-18T13:13:14;-0.60;99.90
20722;DHT22;10522;52.198;9.890;2022-12-18T13:15:49;-0.60;
20722;DHT22;10522;52.198;9.890;2022-12-18T13:18:28;-0.70;99.90
20722;DHT22;10522;52.198;9.890;2022-12-18T13:25:58;-0.90;99.90
20722;DHT22;10522;52.198;9.890;2022-12-18T13:28:52;-1.00;99.90
20722;DHT22;10522;52.198;9.890;2022-12-18T13:34:24;-1.10;99.90
20722;DHT22;10522;52.198;9.890;2022-12-18T13:36:50;-1.10;99.90
20722;DHT22;10522;52.198;9.890;2022-12-18T13:41:50;-1.10;99.90
20722;DHT22;10522;52.198;9.890;2022-12-18T13:44:28;-1.10;99.90
20722;DHT22;10522;52.198;9.890;2022-12-18T13:46:55;-1.10;99.90
20722;DHT22;10522;52.198;9.890;2022-12-18T13:51:56;-1.10;99.90
20722;DHT22;10522;52.198;9.890;2022-12-18T13:54:39;-1.10;99.90
20722;DHT22;10522;52.198;9.890;2022-12-18T13:57:25;-1.30;99.90
20722;DHT22;10522;52.198;9.890;2022-12-18T13:59:51;-1.40;99.90
20722;DHT22;10522;52.198;9.890;2022-12-18T14:02:21;-1.50;99.90
20722;DHT22;10522;52.198;9.890;2022-12-18T14:04:48;-1.50;99.90
20722;DHT22;10522;52.198;9.890;2022-12-18T14:07:19;-1.60;99.90
20722;DHT22;10522;52.198;9.890;2022-12-18T14:09:49;-1.60;99.90
20722;DHT22;10522;52.198;9.890;2022-12-18T14:15:02;-1.70;99.90
20722;DHT22;10522;52.198;9.890;2022-12-18T14:17:28;-1.70;99.90
20722;DHT22;10522;52.198;9.890;2022-12-18T14:19:53;-1.80;99.90
20722;DHT22;10522;52.198;9.890;2022-12-18T14:22:23;-1.80;99.90
20722;DHT22;10522;52.198;9.890;2022-12-18T14:27:43;-1.90;99.90
20722;DHT22;10522;52.198;9.890;2022-12-18T14:30:40;-1.90;99.90
20722;DHT22;10522;52.198;9.890;2022-12-18T14:33:09;-2.00;99.90
20722;DHT22;10522;52.198;9.890;2022-12-18T14:35:38;-2.00;99.90
20722;DHT22;10522;52.198;9.890;2022-12-18T14:38:23;-2.10;99.90
20722;DHT22;10522;52.198;9.890;2022-12-18T14:40:54;-2.10;99.90
20722;DHT22;10522;52.198;9.890;2022-12-18T14:43:20;-2.20;99.90
20722;DHT22;10522;52.198;9.890;2022-12-18T14:45:46;-2.20;99.90
20722;DHT22;10522;52.198;9.890;2022-12-18T14:53:42;-2.40;99.90
20722;DHT22;10522;52.198;9.890;2022-12-18T14:56:19;-2.40;99.90
20722;DHT22;10522;52.198;9.890;2022-12-18T14:58:50;-2.40;99.90
20722;DHT22;10522;52.198;9.890;2022-12-18T15:01:29;-2.40;99.90
20722;DHT22;10522;52.198;9.890;2022-12-18T15:03:57;-2.40;99.90
20722;DHT22;10522;52.198;9.890;2022-12-18T15:06:33;-2.40;99.90
20722;DHT22;10522;52.198;9.890;2022-12-18T15:09:05;-2.40;99.90
20722;DHT22;10522;52.198;9.890;2022-12-18T15:16:54;-2.40;99.90
20722;DHT22;10522;52.198;9.890;2022-12-18T15:19:22;-2.50;99.90
20722;DHT22;10522;52.198;9.890;2022-12-18T15:21:48;-2.50;99.90
20722;DHT22;10522;52.198;9.890;2022-12-18T15:24:18;-2.50;99.90
20722;DHT22;10522;52.198;9.890;2022-12-18T15:26:45;-2.50;99.90
20722;DHT22;10522;52.198;9.890;2022-12-18T15:29:21;-2.50;99.90
20722;DHT22;10522;52.198;9.890;2022-12-18T15:32:00;-2.60;99.90
20722;DHT22;10522;52.198;9.890;2022-12-18T15:34:26;-2.60;99.90
20722;DHT22;10522;52.198;9.890;2022-12-18T15:36:52;-2.60;99.90
20722;DHT22;10522;52.198;9.890;2022-12-18T15:39:18;-2.70;99.90
20722;DHT22;10522;52.198;9.890;2022-12-18T15:41:44;-2.60;99.90
20722;DHT22;10522;52.198;9.890;2022-12-18T15:44:29;-2.70;99.90
20722;DHT22;10522;52.198;9.890;2022-12-18T15:46:55;-2.70;99.90
20722;DHT22;10522;52.198;9.890;2022-12-18T15:49:21;-2.80;99.90
20722;DHT22;10522;52.198;9.890;2022-12-18T15:51:52;-2.80;99.90
20722;DHT22;10522;52.198;9.890;2022-12-18T15:54:19;-2.80;99.90
20722;DHT22;10522;52.198;9.890;2022-12-18T15:57:12;-2.80;99.90
20722;DHT22;10522;52.198;9.890;2022-12-18T15:59:54;-2.80;99.90
20722;DHT22;10522;52.198;9.890;2022-12-18T16:02:22;-2.80;99.90
20722;DHT22;10522;52.198;9.890;2022-12-18T16:04:48;-2.80;99.90
20722;DHT22;10522;52.198;9.890;2022-12-18T16:07:14;-2.70;99.90
20722;DHT22;10522;52.198;9.890;2022-12-18T16:09:40;-2.70;99.90
20722;DHT22;10522;52.198;9.890;2022-12-18T16:12:18;-2.80;99.90
20722;DHT22;10522;52.198;9.890;2022-12-18T16:14:45;-2.80;99.90
20722;DHT22;10522;52.198;9.890;2022-12-18T16:17:12;-2.80;99.90
20722;DHT22;10522;52.198;9.890;2022-12-18T16:19:38;-2.80;99.90
20722;DHT22;10522;52.198;9.890;2022-12-18T16:22:04;-2.80;99.90
20722;DHT22;10522;52.198;9.890;2022-12-18T16:24:32;-2.80;99.90
20722;DHT22;10522;52.198;9.890;2022-12-18T16:27:00;-2.80;99.90
20722;DHT22;10522;52.198;9.890;2022-12-18T16:29:26;-2.80;99.90
20722;DHT22;10522;52.198;9.890;2022-12-18T16:31:56;-2.80;99.90
20722;DHT22;10522;52.198;9.890;2022-12-18T16:34:24;-2.90;99.90
20722;DHT22;10522;52.198;9.890;2022-12-18T16:36:58;-2.90;99.90
20722;DHT22;10522;52.198;9.890;2022-12-18T16:39:25;-2.90;99.90
20722;DHT22;10522;52.198;9.890;2022-12-18T16:41:51;-2.80;99.90
20722;DHT22;10522;52.198;9.890;2022-12-18T16:44:17;-2.90;99.90
20722;DHT22;10522;52.198;9.890;2022-12-18T16:46:43;-2.80;99.90
20722;DHT22;10522;52.198;9.890;2022-12-18T16:49:15;-2.80;99.90
20722;DHT22;10522;52.198;9.890;2022-12-18T16:51:41;-2.80;99.90
20722;DHT22;10522;52.198;9.890;2022-12-18T16:54:07;-2.90;99.90
20722;DHT22;10522;52.198;9.890;2022-12-18T16:56:32;-2.90;99.90
20722;DHT22;10522;52.198;9.890;2022-12-18T16:59:00;-2.90;99.90
20722;DHT22;10522;52.198;9.890;2022-12-18T17:01:27;-2.90;99.90
20722;DHT22;10522;52.198;9.890;2022-12-18T17:04:05;-2.90;99.90
20722;DHT22;10522;52.198;9.890;2022-12-18T17:06:33;-2.80;99.90
20722;DHT22;10522;52.198;9.890;2022-12-18T17:09:01;-2.80;99.90
20722;DHT22;10522;52.198;9.890;2022-12-18T17:11:31;-2.80;99.90
20722;DHT22;10522;52.198;9.890;2022-12-18T17:13:57;-2.80;99.90
20722;DHT22;10522;52.198;9.890;2022-12-18T17:16:23;-2.80;99.90
20722;DHT22;10522;52.198;9.890;2022-12-18T17:18:50;-2.80;99.90
20722;DHT22;10522;52.198;9.890;2022-12-18T17:21:16;-2.80;99.90
20722;DHT22;10522;52.198;9.890;2022-12-18T17:23:43;-2.80;99.90
20722;DHT22;10522;52.198;9.890;2022-12-18T17:26:10;-2.80;99.90
20722;DHT22;10522;52.198;9.890;2022-12-18T17:28:37;-2.70;99.90
20722;DHT22;10522;52.198;9.890;2022-12-18T17:31:16;-2.70;99.90
20722;DHT22;10522;52.198;9.890;2022-12-18T17:33:42;-2.70;99.90
20722;DHT22;10522;52.198;9.890;2022-12-18T17:36:08;-2.70;99.90
20722;DHT22;10522;52.198;9.890;2022-12-18T17:38:35;-2.70;99.90
20722;DHT22;10522;52.198;9.890;2022-12-18T17:41:05;-2.60;99.90